createdAt,value
2017-12-28T00:01:55.996Z,3.70
2017-12-28T00:04:23.425Z,3.70
2017-12-28T00:06:50.851Z,3.70
2017-12-28T00:09:18.733Z,3.70
2017-12-28T00:11:47.091Z,3.70
2017-12-28T00:14:14.510Z,3.70
2017-12-28T00:16:41.923Z,3.70
2017-12-28T00:19:09.347Z,3.70
2017-12-28T00:21:37.544Z,3.60
2017-12-28T00:24:04.961Z,3.60
2017-12-28T00:26:33.038Z,3.60
2017-12-28T00:29:02.424Z,3.60
2017-12-28T00:31:29.821Z,3.60
2017-12-28T00:33:57.248Z,3.60
2017-12-28T00:36:24.671Z,3.50
2017-12-28T00:38:52.090Z,3.50
2017-12-28T00:41:19.504Z,3.50
2017-12-28T00:43:46.930Z,3.50
2017-12-28T00:46:14.342Z,3.50
2017-12-28T00:48:45.115Z,3.40
2017-12-28T00:51:12.532Z,3.40
2017-12-28T00:53:40.714Z,3.30
2017-12-28T00:56:09.616Z,3.30
2017-12-28T00:58:37.036Z,3.30
2017-12-28T01:01:04.455Z,3.30
2017-12-28T01:03:31.886Z,3.30
2017-12-28T01:05:59.307Z,3.30
2017-12-28T01:08:26.730Z,3.30
2017-12-28T01:10:54.151Z,3.30
2017-12-28T01:13:21.579Z,3.20
2017-12-28T01:15:49.004Z,3.20
2017-12-28T01:18:16.415Z,3.10
2017-12-28T01:20:44.603Z,3.00
2017-12-28T01:23:12.025Z,2.90
2017-12-28T01:25:39.443Z,3.00
2017-12-28T01:28:06.875Z,2.90
2017-12-28T01:30:34.288Z,2.90
2017-12-28T01:33:01.716Z,2.90
2017-12-28T01:35:29.566Z,2.90
2017-12-28T01:37:56.979Z,2.80
2017-12-28T01:40:25.170Z,2.80
2017-12-28T01:42:53.356Z,2.80
2017-12-28T01:45:20.786Z,2.80
2017-12-28T01:48:00.220Z,2.80
2017-12-28T01:50:27.640Z,2.80
2017-12-28T01:52:55.600Z,2.80
2017-12-28T01:55:23.597Z,2.80
2017-12-28T01:57:51.031Z,2.80
2017-12-28T02:00:18.444Z,2.80
2017-12-28T02:02:47.062Z,2.80
2017-12-28T02:05:14.483Z,2.70
2017-12-28T02:07:42.676Z,2.80
2017-12-28T02:10:10.104Z,2.80
2017-12-28T02:12:38.300Z,2.70
2017-12-28T02:15:05.727Z,2.70
2017-12-28T02:17:33.151Z,2.70
2017-12-28T02:20:01.015Z,2.70
2017-12-28T02:22:28.445Z,2.70
2017-12-28T02:24:55.866Z,2.70
2017-12-28T02:27:23.300Z,2.70
2017-12-28T02:29:50.712Z,2.70
2017-12-28T02:32:19.374Z,2.70
2017-12-28T02:34:47.559Z,2.80
2017-12-28T02:37:17.136Z,2.80
2017-12-28T02:39:44.555Z,2.80
2017-12-28T02:42:14.359Z,2.80
2017-12-28T02:44:41.768Z,2.80
2017-12-28T02:47:09.203Z,2.80
2017-12-28T02:49:37.144Z,2.80
2017-12-28T02:52:04.571Z,2.80
2017-12-28T02:54:33.154Z,2.90
2017-12-28T02:57:01.351Z,2.90
2017-12-28T02:59:28.775Z,2.90
2017-12-28T03:01:57.369Z,2.90
2017-12-28T03:04:25.561Z,2.90
2017-12-28T03:06:53.004Z,2.90
2017-12-28T03:09:21.196Z,3.00
2017-12-28T03:11:48.616Z,3.00
2017-12-28T03:14:16.048Z,3.10
2017-12-28T03:16:44.124Z,3.20
2017-12-28T03:19:11.529Z,3.30
2017-12-28T03:21:41.379Z,3.30
2017-12-28T03:24:08.807Z,3.40
2017-12-28T03:26:36.234Z,3.40
2017-12-28T03:29:04.423Z,3.50
2017-12-28T03:31:32.616Z,3.50
2017-12-28T03:34:00.042Z,3.50
2017-12-28T03:36:28.224Z,3.50
2017-12-28T03:38:57.707Z,3.50
2017-12-28T03:41:25.130Z,3.50
2017-12-28T03:43:52.560Z,3.60
2017-12-28T03:46:19.971Z,3.60
2017-12-28T03:48:47.401Z,3.60
2017-12-28T03:51:14.826Z,3.50
2017-12-28T03:53:43.003Z,3.50
2017-12-28T03:56:10.423Z,3.50
2017-12-28T03:58:37.852Z,3.50
2017-12-28T04:01:06.095Z,3.50
2017-12-28T04:03:33.515Z,3.40
2017-12-28T04:06:02.304Z,3.40
2017-12-28T04:08:29.720Z,3.40
2017-12-28T04:10:57.161Z,3.40
2017-12-28T04:13:25.108Z,3.40
2017-12-28T04:15:53.304Z,3.40
2017-12-28T04:18:21.119Z,3.40
2017-12-28T04:20:48.840Z,3.40
2017-12-28T04:23:16.268Z,3.40
2017-12-28T04:25:44.474Z,3.30
2017-12-28T04:28:11.888Z,3.30
2017-12-28T04:30:40.077Z,3.30
2017-12-28T04:33:07.496Z,3.30
2017-12-28T04:35:35.495Z,3.30
2017-12-28T04:38:04.087Z,3.40
2017-12-28T04:40:31.523Z,3.30
2017-12-28T04:42:59.720Z,3.40
2017-12-28T04:45:27.917Z,3.40
2017-12-28T04:47:56.032Z,3.40
2017-12-28T04:50:23.464Z,3.40
2017-12-28T04:52:50.882Z,3.40
2017-12-28T04:55:18.870Z,3.40
2017-12-28T04:57:48.927Z,3.50
2017-12-28T05:00:17.128Z,3.40
2017-12-28T05:02:45.596Z,3.50
2017-12-28T05:05:13.616Z,3.50
2017-12-28T05:07:41.045Z,3.50
2017-12-28T05:10:08.473Z,3.50
2017-12-28T05:12:35.895Z,3.50
2017-12-28T05:15:03.324Z,3.50
2017-12-28T05:17:30.752Z,3.50
2017-12-28T05:19:59.818Z,3.50
2017-12-28T05:22:27.252Z,3.50
2017-12-28T05:24:54.663Z,3.60
2017-12-28T05:27:22.854Z,3.50
2017-12-28T05:29:50.275Z,3.50
2017-12-28T05:32:18.232Z,3.50
2017-12-28T05:34:45.655Z,3.40
2017-12-28T05:37:15.558Z,3.40
2017-12-28T05:39:42.976Z,3.40
2017-12-28T05:42:10.408Z,3.40
2017-12-28T05:44:37.825Z,3.40
2017-12-28T05:47:05.269Z,3.40
2017-12-28T05:49:33.721Z,3.40
2017-12-28T05:52:01.626Z,3.40
2017-12-28T05:54:29.822Z,3.40
2017-12-28T05:56:57.251Z,3.40
2017-12-28T05:59:25.444Z,3.30
2017-12-28T06:01:52.872Z,3.30
2017-12-28T06:04:21.047Z,3.30
2017-12-28T06:06:49.241Z,3.30
2017-12-28T06:09:16.660Z,3.30
2017-12-28T06:11:44.080Z,3.20
2017-12-28T06:14:11.511Z,3.30
2017-12-28T06:16:38.923Z,3.20
2017-12-28T06:19:06.356Z,3.10
2017-12-28T06:21:33.787Z,3.10
2017-12-28T06:24:01.215Z,3.00
2017-12-28T06:26:28.627Z,3.00
2017-12-28T06:28:56.434Z,2.90
2017-12-28T06:31:23.833Z,2.80
2017-12-28T06:33:51.267Z,2.80
2017-12-28T06:36:19.452Z,2.60
2017-12-28T06:38:46.882Z,2.60
2017-12-28T06:41:15.072Z,2.60
2017-12-28T06:43:42.495Z,2.60
2017-12-28T06:46:09.916Z,2.60
2017-12-28T06:48:37.354Z,2.60
2017-12-28T06:51:04.764Z,2.60
2017-12-28T06:53:32.191Z,2.60
2017-12-28T06:56:03.068Z,2.60
2017-12-28T06:58:30.500Z,2.60
2017-12-28T07:00:57.908Z,2.50
2017-12-28T07:03:25.331Z,2.50
2017-12-28T07:05:52.755Z,2.40
2017-12-28T07:08:20.180Z,2.40
2017-12-28T07:10:47.596Z,2.40
2017-12-28T07:13:15.307Z,2.40
2017-12-28T07:15:42.729Z,2.50
2017-12-28T07:18:14.699Z,2.60
2017-12-28T07:20:42.888Z,2.70
2017-12-28T07:23:16.944Z,2.70
2017-12-28T07:25:48.943Z,2.70
2017-12-28T07:28:16.380Z,2.70
2017-12-28T07:30:43.807Z,2.60
2017-12-28T07:33:11.231Z,2.50
2017-12-28T07:35:39.963Z,2.30
2017-12-28T07:38:07.387Z,2.30
2017-12-28T07:40:34.907Z,2.30
2017-12-28T07:43:02.333Z,2.40
2017-12-28T07:45:29.760Z,2.50
2017-12-28T07:47:57.980Z,2.60
2017-12-28T07:50:25.407Z,2.50
2017-12-28T07:52:54.730Z,2.60
2017-12-28T07:55:22.161Z,2.70
2017-12-28T07:57:49.580Z,2.70
2017-12-28T08:00:17.780Z,3.00
2017-12-28T08:02:45.204Z,3.00
2017-12-28T08:05:12.628Z,3.20
2017-12-28T08:07:40.048Z,3.20
2017-12-28T08:10:09.959Z,3.20
2017-12-28T08:12:37.392Z,3.20
2017-12-28T08:15:04.825Z,3.20
2017-12-28T08:17:32.250Z,3.20
2017-12-28T08:19:59.681Z,3.30
2017-12-28T08:22:27.872Z,3.40
2017-12-28T08:24:55.292Z,3.40
2017-12-28T08:27:23.487Z,3.50
2017-12-28T08:29:50.928Z,3.50
2017-12-28T08:32:19.123Z,3.50
2017-12-28T08:34:46.549Z,3.40
2017-12-28T08:37:14.031Z,3.40
2017-12-28T08:39:42.215Z,3.60
2017-12-28T08:42:10.579Z,3.50
2017-12-28T08:44:38.767Z,3.50
2017-12-28T08:47:11.839Z,3.50
2017-12-28T08:49:40.027Z,3.50
2017-12-28T08:52:07.457Z,3.50
2017-12-28T08:54:34.942Z,3.50
2017-12-28T08:57:04.977Z,3.50
2017-12-28T08:59:32.402Z,3.50
2017-12-28T09:02:01.131Z,3.50
2017-12-28T09:04:28.556Z,3.50
2017-12-28T09:06:57.355Z,3.50
2017-12-28T09:09:24.792Z,3.50
2017-12-28T09:11:52.991Z,3.50
2017-12-28T09:14:20.440Z,3.50
2017-12-28T09:16:47.872Z,3.60
2017-12-28T09:19:16.458Z,3.50
2017-12-28T09:21:44.652Z,3.50
2017-12-28T09:24:12.995Z,3.50
2017-12-28T09:26:40.732Z,3.40
2017-12-28T09:29:08.435Z,3.40
2017-12-28T09:31:35.839Z,3.30
2017-12-28T09:34:03.264Z,3.40
2017-12-28T09:36:31.472Z,3.40
2017-12-28T09:38:58.893Z,3.40
2017-12-28T09:41:26.316Z,3.40
2017-12-28T09:43:53.745Z,3.50
2017-12-28T09:46:21.169Z,3.60
2017-12-28T09:48:48.596Z,3.70
2017-12-28T09:51:16.021Z,3.70
2017-12-28T09:53:43.460Z,3.70
2017-12-28T09:56:11.704Z,3.70
2017-12-28T09:58:39.103Z,3.80
2017-12-28T10:01:06.536Z,3.80
2017-12-28T10:03:34.490Z,3.80
2017-12-28T10:06:02.668Z,3.80
2017-12-28T10:08:30.100Z,3.80
2017-12-28T10:10:57.513Z,3.80
2017-12-28T10:16:35.611Z,3.90
2017-12-28T10:19:04.222Z,3.90
2017-12-28T10:21:32.323Z,4.00
2017-12-28T10:24:02.263Z,4.10
2017-12-28T10:26:29.679Z,4.00
2017-12-28T10:28:57.512Z,4.10
2017-12-28T10:31:25.353Z,4.10
2017-12-28T10:33:54.545Z,4.20
2017-12-28T10:36:21.963Z,4.20
2017-12-28T10:38:49.832Z,4.20
2017-12-28T10:41:17.253Z,4.10
2017-12-28T10:43:44.684Z,4.10
2017-12-28T10:46:12.108Z,4.10
2017-12-28T10:48:39.528Z,4.10
2017-12-28T10:51:06.956Z,4.10
2017-12-28T10:53:35.755Z,4.30
2017-12-28T10:56:03.952Z,4.40
2017-12-28T10:58:32.059Z,4.40
2017-12-28T11:00:59.479Z,4.40
2017-12-28T11:03:26.891Z,4.30
2017-12-28T11:05:54.318Z,4.10
2017-12-28T11:08:23.648Z,4.10
2017-12-28T11:10:51.076Z,4.00
2017-12-28T11:13:18.952Z,4.10
2017-12-28T11:15:46.501Z,4.10
2017-12-28T11:18:13.926Z,4.00
2017-12-28T11:20:41.372Z,4.00
2017-12-28T11:23:09.581Z,4.00
2017-12-28T11:25:37.128Z,4.00
2017-12-28T11:28:05.417Z,4.00
2017-12-28T11:30:32.820Z,4.10
2017-12-28T11:33:00.246Z,4.10
2017-12-28T11:35:27.667Z,4.10
2017-12-28T11:37:55.084Z,4.30
2017-12-28T11:40:22.507Z,4.50
2017-12-28T11:45:42.552Z,4.90
2017-12-28T11:48:09.972Z,5.00
2017-12-28T11:50:40.165Z,5.10
2017-12-28T11:53:07.595Z,5.10
2017-12-28T11:55:43.440Z,4.90
2017-12-28T11:58:10.858Z,4.90
2017-12-28T12:00:44.787Z,4.90
2017-12-28T12:06:12.915Z,4.70
2017-12-28T12:08:46.710Z,4.60
2017-12-28T12:11:14.672Z,4.60
2017-12-28T12:13:42.092Z,4.90
2017-12-28T12:16:09.657Z,5.40
2017-12-28T12:18:37.074Z,6.10
2017-12-28T12:21:04.499Z,6.70
2017-12-28T12:23:31.928Z,7.00
2017-12-28T12:25:59.475Z,7.50
2017-12-28T12:28:26.889Z,7.60
2017-12-28T12:30:55.075Z,6.30
2017-12-28T12:33:25.571Z,6.30
2017-12-28T12:35:52.987Z,5.90
2017-12-28T12:38:20.411Z,5.50
2017-12-28T12:40:50.607Z,5.00
2017-12-28T12:43:18.027Z,4.90
2017-12-28T12:45:45.774Z,4.80
2017-12-28T12:48:13.187Z,4.60
2017-12-28T12:50:41.472Z,4.60
2017-12-28T12:53:08.892Z,4.50
2017-12-28T12:55:36.308Z,4.50
2017-12-28T12:58:04.543Z,4.50
2017-12-28T13:00:31.962Z,4.50
2017-12-28T13:02:59.387Z,4.50
2017-12-28T13:05:30.718Z,4.60
2017-12-28T13:07:58.288Z,4.60
2017-12-28T13:10:26.479Z,4.90
2017-12-28T13:12:53.915Z,4.90
2017-12-28T13:15:22.109Z,4.90
2017-12-28T13:17:49.527Z,4.90
2017-12-28T13:20:16.947Z,4.80
2017-12-28T13:22:44.388Z,4.70
2017-12-28T13:25:11.800Z,4.70
2017-12-28T13:27:39.237Z,4.70
2017-12-28T13:30:13.621Z,4.70
2017-12-28T13:32:41.794Z,4.70
2017-12-28T13:35:09.209Z,4.70
2017-12-28T13:37:37.195Z,4.70
2017-12-28T13:40:05.387Z,4.70
2017-12-28T13:42:32.810Z,4.70
2017-12-28T13:45:01.048Z,4.70
2017-12-28T13:47:28.479Z,4.70
2017-12-28T13:49:56.189Z,4.70
2017-12-28T13:52:23.628Z,4.70
2017-12-28T13:54:51.057Z,4.60
2017-12-28T13:57:18.476Z,4.60
2017-12-28T13:59:45.914Z,4.70
2017-12-28T14:02:13.323Z,4.70
2017-12-28T14:04:40.757Z,4.70
2017-12-28T14:07:08.172Z,4.60
2017-12-28T14:09:35.600Z,4.70
2017-12-28T14:12:04.416Z,4.60
2017-12-28T14:14:32.498Z,4.50
2017-12-28T14:16:59.912Z,4.40
2017-12-28T14:19:27.339Z,4.30
2017-12-28T14:21:55.947Z,4.10
2017-12-28T14:24:23.393Z,4.00
2017-12-28T14:26:51.404Z,4.00
2017-12-28T14:29:18.839Z,3.90
2017-12-28T14:31:46.264Z,3.90
2017-12-28T14:34:13.686Z,3.80
2017-12-28T14:36:41.652Z,3.80
2017-12-28T14:39:09.840Z,3.70
2017-12-28T14:41:37.603Z,3.70
2017-12-28T14:44:05.054Z,3.70
2017-12-28T14:46:32.439Z,3.60
2017-12-28T14:49:03.096Z,3.60
2017-12-28T14:51:31.292Z,3.40
2017-12-28T14:53:58.720Z,3.40
2017-12-28T14:56:27.355Z,3.30
2017-12-28T14:58:54.775Z,3.30
2017-12-28T15:01:22.772Z,3.20
2017-12-28T15:03:50.204Z,3.10
2017-12-28T15:06:17.624Z,3.10
2017-12-28T15:08:45.486Z,3.00
2017-12-28T15:11:12.916Z,2.80
2017-12-28T15:13:42.252Z,2.70
2017-12-28T15:16:10.648Z,2.60
2017-12-28T15:18:39.154Z,2.50
2017-12-28T15:21:06.575Z,2.50
2017-12-28T15:23:34.764Z,2.40
2017-12-28T15:26:02.959Z,2.30
2017-12-28T15:28:30.374Z,2.30
2017-12-28T15:30:57.796Z,2.20
2017-12-28T15:33:25.234Z,2.10
2017-12-28T15:35:53.983Z,2.00
2017-12-28T15:38:22.184Z,1.90
2017-12-28T15:40:49.602Z,1.90
2017-12-28T15:43:17.029Z,1.90
2017-12-28T15:45:44.489Z,1.90
2017-12-28T15:48:12.532Z,1.90
2017-12-28T15:50:39.956Z,1.80
2017-12-28T15:53:07.384Z,1.70
2017-12-28T15:55:34.795Z,1.60
2017-12-28T15:58:02.224Z,1.60
2017-12-28T16:00:30.824Z,1.50
2017-12-28T16:02:59.536Z,1.50
2017-12-28T16:05:26.961Z,1.40
2017-12-28T16:07:55.152Z,1.40
2017-12-28T16:10:22.563Z,1.40
2017-12-28T16:12:51.979Z,1.50
2017-12-28T16:15:19.417Z,1.40
2017-12-28T16:17:46.827Z,1.30
2017-12-28T16:20:14.836Z,1.20
2017-12-28T16:22:42.284Z,1.20
2017-12-28T16:25:09.703Z,1.10
2017-12-28T16:27:37.244Z,1.10
2017-12-28T16:30:05.451Z,1.10
2017-12-28T16:32:32.875Z,1.10
2017-12-28T16:35:01.463Z,1.00
2017-12-28T16:37:30.900Z,0.90
2017-12-28T16:39:58.319Z,0.90
2017-12-28T16:42:26.508Z,0.90
2017-12-28T16:44:54.713Z,0.80
2017-12-28T16:47:22.122Z,0.80
2017-12-28T16:49:52.231Z,0.70
2017-12-28T16:52:19.795Z,0.70
2017-12-28T16:54:47.214Z,0.60
2017-12-28T16:57:15.623Z,0.60
2017-12-28T16:59:43.183Z,0.50
2017-12-28T17:02:11.482Z,0.30
2017-12-28T17:04:38.899Z,0.30
2017-12-28T17:07:06.336Z,0.30
2017-12-28T17:09:33.768Z,0.20
2017-12-28T17:12:01.962Z,0.00
2017-12-28T17:14:29.384Z,0.00
2017-12-28T17:16:57.576Z,-0.10
2017-12-28T17:19:25.008Z,-0.10
2017-12-28T17:21:52.423Z,-0.10
2017-12-28T17:24:19.858Z,-0.20
2017-12-28T17:26:50.071Z,-0.40
2017-12-28T17:29:17.503Z,-0.60
2017-12-28T17:31:45.688Z,-0.90
2017-12-28T17:34:13.884Z,-1.10
2017-12-28T17:36:41.311Z,-1.20
2017-12-28T17:39:09.508Z,-1.50
2017-12-28T17:41:37.762Z,-1.50
2017-12-28T17:44:05.956Z,-1.80
2017-12-28T17:46:33.379Z,-1.90
2017-12-28T17:49:00.804Z,-2.00
2017-12-28T17:51:28.235Z,-2.10
2017-12-28T17:53:56.076Z,-2.10
2017-12-28T17:56:24.272Z,-1.90
2017-12-28T17:58:51.695Z,-1.90
2017-12-28T18:01:19.132Z,-1.70
2017-12-28T18:03:46.567Z,-1.60
2017-12-28T18:06:14.987Z,-1.50
2017-12-28T18:08:42.418Z,-1.40
2017-12-28T18:11:10.380Z,-1.30
2017-12-28T18:13:37.808Z,-1.30
2017-12-28T18:16:05.248Z,-1.20
2017-12-28T18:18:33.437Z,-1.00
2017-12-28T18:21:00.868Z,-1.00
2017-12-28T18:23:29.068Z,-0.80
2017-12-28T18:25:57.212Z,-0.80
2017-12-28T18:28:25.404Z,-0.60
2017-12-28T18:30:52.835Z,-0.60
2017-12-28T18:33:20.392Z,-0.50
2017-12-28T18:35:47.822Z,-0.40
2017-12-28T18:38:15.648Z,-0.30
2017-12-28T18:40:43.079Z,-0.20
2017-12-28T18:43:10.939Z,-0.20
2017-12-28T18:45:38.368Z,-0.10
2017-12-28T18:48:06.151Z,-0.10
2017-12-28T18:50:34.115Z,0.00
2017-12-28T18:53:01.539Z,0.00
2017-12-28T18:55:28.960Z,0.20
2017-12-28T18:57:57.152Z,0.20
2017-12-28T19:00:24.613Z,0.20
2017-12-28T19:02:52.435Z,0.30
2017-12-28T19:05:19.831Z,0.20
2017-12-28T19:07:47.254Z,0.10
2017-12-28T19:10:14.677Z,0.10
2017-12-28T19:12:42.099Z,0.00
2017-12-28T19:15:09.529Z,-0.20
2017-12-28T19:17:36.966Z,-0.30
2017-12-28T19:20:05.012Z,-0.50
2017-12-28T19:22:32.458Z,-0.60
2017-12-28T19:25:00.824Z,-0.60
2017-12-28T19:27:28.997Z,-0.70
2017-12-28T19:29:56.414Z,-0.70
2017-12-28T19:32:23.863Z,-0.80
2017-12-28T19:34:52.594Z,-0.90
2017-12-28T19:37:20.019Z,-1.00
2017-12-28T19:39:47.441Z,-1.10
2017-12-28T19:42:15.271Z,-1.10
2017-12-28T19:44:42.693Z,-1.10
2017-12-28T19:47:10.119Z,-1.10
2017-12-28T19:49:37.809Z,-1.10
2017-12-28T19:52:05.220Z,-1.20
2017-12-28T19:54:32.643Z,-1.30
2017-12-28T19:57:03.413Z,-1.40
2017-12-28T19:59:30.835Z,-1.40
2017-12-28T20:01:59.045Z,-1.40
2017-12-28T20:04:26.460Z,-1.40
2017-12-28T20:06:55.655Z,-1.40
2017-12-28T20:09:23.500Z,-1.40
2017-12-28T20:11:51.087Z,-1.40
2017-12-28T20:14:19.279Z,-1.60
2017-12-28T20:16:47.228Z,-1.60
2017-12-28T20:19:16.128Z,-1.70
2017-12-28T20:21:44.325Z,-1.70
2017-12-28T20:24:11.856Z,-1.70
2017-12-28T20:26:40.588Z,-1.80
2017-12-28T20:29:08.007Z,-1.80
2017-12-28T20:31:36.198Z,-1.70
2017-12-28T20:34:03.630Z,-1.70
2017-12-28T20:36:31.827Z,-1.80
2017-12-28T20:38:59.273Z,-1.80
2017-12-28T20:41:27.457Z,-1.90
2017-12-28T20:43:54.892Z,-1.90
2017-12-28T20:46:23.095Z,-2.10
2017-12-28T20:48:50.531Z,-2.10
2017-12-28T20:51:18.724Z,-2.20
2017-12-28T20:53:46.217Z,-2.30
2017-12-28T20:56:13.646Z,-2.30
2017-12-28T20:58:41.073Z,-2.30
2017-12-28T21:01:09.268Z,-2.30
2017-12-28T21:03:36.863Z,-2.30
2017-12-28T21:06:04.293Z,-2.20
2017-12-28T21:08:31.723Z,-2.20
2017-12-28T21:10:59.914Z,-2.10
2017-12-28T21:13:28.269Z,-2.10
2017-12-28T21:15:55.701Z,-2.20
2017-12-28T21:18:23.896Z,-2.20
2017-12-28T21:20:51.315Z,-2.20
2017-12-28T21:23:19.517Z,-2.20
2017-12-28T21:25:47.905Z,-2.30
2017-12-28T21:28:15.327Z,-2.20
2017-12-28T21:30:42.787Z,-2.10
2017-12-28T21:33:10.218Z,-2.00
2017-12-28T21:35:37.648Z,-1.90
2017-12-28T21:38:05.844Z,-1.70
2017-12-28T21:40:33.271Z,-1.70
2017-12-28T21:43:01.473Z,-1.50
2017-12-28T21:45:28.905Z,-1.50
2017-12-28T21:47:57.105Z,-1.30
2017-12-28T21:50:24.533Z,-1.40
2017-12-28T21:52:51.960Z,-1.30
2017-12-28T21:55:19.395Z,-1.30
2017-12-28T21:57:46.831Z,-1.40
2017-12-28T22:00:14.250Z,-1.30
2017-12-28T22:02:41.680Z,-1.30
2017-12-28T22:05:09.867Z,-1.20
2017-12-28T22:07:38.260Z,-1.20
2017-12-28T22:10:05.963Z,-1.10
2017-12-28T22:12:34.561Z,-1.10
2017-12-28T22:15:02.407Z,-1.10
2017-12-28T22:17:29.844Z,-1.00
2017-12-28T22:20:01.803Z,-1.10
2017-12-28T22:22:29.997Z,-1.20
2017-12-28T22:24:58.192Z,-1.20
2017-12-28T22:27:26.624Z,-1.20
2017-12-28T22:29:54.051Z,-1.20
2017-12-28T22:32:21.500Z,-1.20
2017-12-28T22:34:48.923Z,-1.10
2017-12-28T22:37:17.089Z,-1.20
2017-12-28T22:39:45.275Z,-1.30
2017-12-28T22:42:13.483Z,-1.50
2017-12-28T22:44:40.898Z,-1.50
2017-12-28T22:47:10.087Z,-1.70
2017-12-28T22:49:38.286Z,-1.60
2017-12-28T22:52:05.714Z,-1.70
2017-12-28T22:54:35.820Z,-1.30
2017-12-28T22:57:03.252Z,-1.30
2017-12-28T22:59:30.675Z,-1.00
2017-12-28T23:01:58.099Z,-0.90
2017-12-28T23:04:27.065Z,-0.70
2017-12-28T23:06:54.497Z,-0.70
2017-12-28T23:09:21.923Z,-0.70
2017-12-28T23:11:50.120Z,-0.60
2017-12-28T23:14:17.547Z,-0.70
2017-12-28T23:16:45.740Z,-0.60
2017-12-28T23:19:13.275Z,-0.60
2017-12-28T23:21:41.488Z,-0.60
2017-12-28T23:24:08.907Z,-0.60
2017-12-28T23:26:37.107Z,-0.70
2017-12-28T23:29:04.536Z,-0.70
2017-12-28T23:31:32.731Z,-0.80
2017-12-28T23:34:00.164Z,-0.80
2017-12-28T23:36:27.578Z,-0.80
2017-12-28T23:38:55.183Z,-0.80
2017-12-28T23:41:23.376Z,-0.80
2017-12-28T23:43:50.817Z,-0.80
2017-12-28T23:46:19.003Z,-0.80
2017-12-28T23:48:48.035Z,-0.90
2017-12-28T23:51:15.454Z,-0.90
2017-12-28T23:53:43.660Z,-1.00
2017-12-28T23:56:11.076Z,-0.90
2017-12-28T23:58:39.267Z,-1.00
